SKBG/BGA METAR and TAF weather

Enter ICAO airport designator
Station Type Date Time Source
SKBG METAR 2018/12/15 04:00 UTC NOAA

SKBG 150400Z 19003KT 9999 SCT015 SCT070 20/20 A3007


Station Type Date Time Source
SKBG Decoded METAR 2018/12/15 04:00 UTC NOAA

Bucaramanga / Palonegro, Colombia (SKBG) 07-06N 073-12W
Dec 14, 2018 - 11:00 PM EST / 2018.12.15 0400 UTC
Wind: from the S (190 degrees) at 3 MPH (3 KT):0
Visibility: greater than 7 mile(s):0
Sky conditions: partly cloudy
Temperature: 68 F (20 C)
Dew Point: 68 F (20 C)
Relative Humidity: 100%
Pressure (altimeter): 30.07 in. Hg (1018 hPa)
ob: SKBG 150400Z 19003KT 9999 SCT015 SCT070 20/20 A3007
cycle: 4

Station Type Date Time Source
SKBG TAF 2018/12/14 18:42 UTC NOAA

TAF TAF SKBG 141700Z 1418/1518 33010KT 9999 SCT017 PROB40
TEMPO 1419/1423 6000 TS SCT017CB
BECMG 1500/1502 00000KT TX28/1418Z TN18/1511Z


Example: see airport list